createdAt,value
2023-01-29T00:00:22.481Z,-2.07
2023-01-29T00:02:51.201Z,-2.10
2023-01-29T00:05:28.532Z,-2.18
2023-01-29T00:07:59.173Z,-2.09
2023-01-29T00:10:28.165Z,-2.10
2023-01-29T00:12:56.754Z,-2.13
2023-01-29T00:15:32.461Z,-2.11
2023-01-29T00:18:01.568Z,-2.15
2023-01-29T00:20:31.270Z,-2.06
2023-01-29T00:23:09.136Z,-2.02
2023-01-29T00:25:37.797Z,-2.06
2023-01-29T00:28:06.859Z,-2.06
2023-01-29T00:30:35.689Z,-2.01
2023-01-29T00:33:05.016Z,-1.94
2023-01-29T00:35:34.515Z,-1.97
2023-01-29T00:38:03.160Z,-1.92
2023-01-29T00:40:55.556Z,-1.94
2023-01-29T00:43:42.000Z,-1.87
2023-01-29T00:46:11.304Z,-1.79
2023-01-29T00:48:39.990Z,-1.90
2023-01-29T00:51:08.594Z,-1.79
2023-01-29T00:53:37.223Z,-1.79
2023-01-29T00:56:08.437Z,-1.81
2023-01-29T00:58:37.056Z,-1.74
2023-01-29T01:01:05.960Z,-1.74
2023-01-29T01:03:35.475Z,-1.72
2023-01-29T01:06:05.925Z,-1.80
2023-01-29T01:08:51.956Z,-1.67
2023-01-29T01:11:24.618Z,-1.64
2023-01-29T01:13:53.154Z,-1.64
2023-01-29T01:16:21.845Z,-1.67
2023-01-29T01:19:09.909Z,-1.65
2023-01-29T01:21:38.552Z,-1.64
2023-01-29T01:24:07.787Z,-1.56
2023-01-29T01:26:37.913Z,-1.63
2023-01-29T01:29:06.945Z,-1.57
2023-01-29T01:31:35.715Z,-1.59
2023-01-29T01:34:04.501Z,-1.57
2023-01-29T01:36:33.228Z,-1.64
2023-01-29T01:39:02.251Z,-1.56
2023-01-29T01:41:31.874Z,-1.53
2023-01-29T01:44:04.453Z,-1.62
2023-01-29T01:46:36.005Z,-1.53
2023-01-29T01:49:11.363Z,-1.64
2023-01-29T01:51:47.686Z,-1.57
2023-01-29T01:54:24.360Z,-1.48
2023-01-29T01:57:04.966Z,-1.59
2023-01-29T01:59:37.202Z,-1.46
2023-01-29T02:02:25.927Z,-1.47
2023-01-29T02:05:12.441Z,-1.44
2023-01-29T02:08:03.244Z,-1.46
2023-01-29T02:10:39.294Z,-1.45
2023-01-29T02:13:08.908Z,-1.50
2023-01-29T02:15:41.951Z,-1.52
2023-01-29T02:18:10.681Z,-1.35
2023-01-29T02:20:43.681Z,-1.43
2023-01-29T02:24:02.745Z,-1.36
2023-01-29T02:26:51.347Z,-1.27
2023-01-29T02:29:35.435Z,-1.35
2023-01-29T02:32:18.684Z,-1.33
2023-01-29T02:35:19.366Z,-1.35
2023-01-29T02:37:58.595Z,-1.31
2023-01-29T02:40:37.098Z,-1.20
2023-01-29T02:43:23.641Z,-1.27
2023-01-29T02:46:04.274Z,-1.22
2023-01-29T02:48:44.745Z,-1.29
2023-01-29T02:51:24.724Z,-1.26
2023-01-29T02:54:02.931Z,-1.22
2023-01-29T02:56:40.414Z,-1.30
2023-01-29T02:59:15.818Z,-1.17
2023-01-29T03:01:53.330Z,-1.23
2023-01-29T03:04:29.569Z,-1.20
2023-01-29T03:07:05.015Z,-1.15
2023-01-29T03:09:40.777Z,-1.17
2023-01-29T03:12:29.284Z,-1.13
2023-01-29T03:15:14.148Z,-1.03
2023-01-29T03:17:55.458Z,-1.15
2023-01-29T03:20:32.242Z,-1.04
2023-01-29T03:23:18.101Z,-1.08
2023-01-29T03:26:04.539Z,-1.09
2023-01-29T03:28:52.101Z,-1.04
2023-01-29T03:31:38.864Z,-0.95
2023-01-29T03:34:16.613Z,-1.05
2023-01-29T03:36:55.177Z,-0.99
2023-01-29T03:39:29.226Z,-0.95
2023-01-29T03:42:06.583Z,-1.00
2023-01-29T03:44:44.478Z,-0.95
2023-01-29T03:47:29.448Z,-0.92
2023-01-29T03:50:07.781Z,-0.87
2023-01-29T03:52:46.641Z,-1.04
2023-01-29T03:55:21.724Z,-0.94
2023-01-29T03:58:02.329Z,-0.90
2023-01-29T04:00:39.227Z,-0.89
2023-01-29T04:03:17.111Z,-0.82
2023-01-29T04:05:58.456Z,-0.83
2023-01-29T04:08:37.490Z,-0.80
2023-01-29T04:11:15.329Z,-0.75
2023-01-29T04:13:46.310Z,-0.71
2023-01-29T04:16:24.054Z,-0.69
2023-01-29T04:19:16.365Z,-0.70
2023-01-29T04:21:50.445Z,-0.57
2023-01-29T04:24:19.646Z,-0.54
2023-01-29T04:27:14.254Z,-0.50
2023-01-29T04:30:05.812Z,-0.61
2023-01-29T04:33:06.479Z,-0.48
2023-01-29T04:35:55.530Z,-0.53
2023-01-29T04:38:42.148Z,-0.53
2023-01-29T04:41:23.283Z,-0.45
2023-01-29T04:44:07.964Z,-0.47
2023-01-29T04:46:50.782Z,-0.46
2023-01-29T04:49:34.440Z,-0.47
2023-01-29T04:52:14.270Z,-0.42
2023-01-29T04:55:01.530Z,-0.36
2023-01-29T04:57:46.298Z,-0.32
2023-01-29T05:00:22.026Z,-0.39
2023-01-29T05:02:52.237Z,-0.34
2023-01-29T05:05:22.419Z,-0.24
2023-01-29T05:07:51.761Z,-0.25
2023-01-29T05:10:26.230Z,-0.22
2023-01-29T05:13:01.912Z,-0.18
2023-01-29T05:15:42.117Z,-0.20
2023-01-29T05:18:11.015Z,-0.12
2023-01-29T05:20:44.091Z,0.02
2023-01-29T05:23:18.632Z,-0.08
2023-01-29T05:25:49.233Z,-0.08
2023-01-29T05:28:17.433Z,-0.17
2023-01-29T05:30:49.000Z,-0.12
2023-01-29T05:33:22.615Z,0.03
2023-01-29T05:35:51.852Z,0.01
2023-01-29T05:38:21.669Z,0.03
2023-01-29T05:40:52.107Z,0.10
2023-01-29T05:43:22.977Z,0.04
2023-01-29T05:45:55.999Z,0.09
2023-01-29T05:48:25.627Z,0.08
2023-01-29T05:50:54.229Z,0.15
2023-01-29T05:53:23.144Z,0.16
2023-01-29T05:55:53.158Z,0.19
2023-01-29T05:58:21.893Z,0.18
2023-01-29T06:00:50.908Z,0.09
2023-01-29T06:03:19.537Z,0.00
2023-01-29T06:05:48.168Z,0.09
2023-01-29T06:08:16.707Z,0.01
2023-01-29T06:10:45.269Z,-0.13
2023-01-29T06:13:15.244Z,-0.10
2023-01-29T06:15:43.825Z,-0.03
2023-01-29T06:18:12.388Z,-0.19
2023-01-29T06:20:41.153Z,-0.07
2023-01-29T06:23:09.769Z,-0.05
2023-01-29T06:25:38.348Z,-0.01
2023-01-29T06:28:06.950Z,0.15
2023-01-29T06:30:37.032Z,0.10
2023-01-29T06:33:05.771Z,0.23
2023-01-29T06:35:38.227Z,0.17
2023-01-29T06:38:06.864Z,0.25
2023-01-29T06:40:35.747Z,0.30
2023-01-29T06:43:05.419Z,0.28
2023-01-29T06:45:37.224Z,0.32
2023-01-29T06:48:27.350Z,0.26
2023-01-29T06:50:56.213Z,0.38
2023-01-29T06:53:25.574Z,0.44
2023-01-29T06:55:55.816Z,0.44
2023-01-29T06:58:24.673Z,0.43
2023-01-29T07:00:55.183Z,0.50
2023-01-29T07:03:23.807Z,0.53
2023-01-29T07:05:53.434Z,0.62
2023-01-29T07:08:22.848Z,0.66
2023-01-29T07:10:53.092Z,0.68
2023-01-29T07:13:21.792Z,0.76
2023-01-29T07:15:50.434Z,0.71
2023-01-29T07:18:24.904Z,0.73
2023-01-29T07:20:56.830Z,0.74
2023-01-29T07:23:28.636Z,0.67
2023-01-29T07:25:57.608Z,0.82
2023-01-29T07:28:26.261Z,0.94
2023-01-29T07:31:00.120Z,0.91
2023-01-29T07:33:31.805Z,0.85
2023-01-29T07:36:01.540Z,0.88
2023-01-29T07:38:31.183Z,0.92
2023-01-29T07:41:00.927Z,1.00
2023-01-29T07:43:31.174Z,0.92
2023-01-29T07:46:04.376Z,0.92
2023-01-29T07:48:37.688Z,0.99
2023-01-29T07:51:07.178Z,1.15
2023-01-29T07:53:35.933Z,1.08
2023-01-29T07:56:04.594Z,1.16
2023-01-29T07:58:35.587Z,1.17
2023-01-29T08:01:08.260Z,1.07
2023-01-29T08:03:38.817Z,1.26
2023-01-29T08:06:08.851Z,1.34
2023-01-29T08:08:37.591Z,1.36
2023-01-29T08:11:06.813Z,1.29
2023-01-29T08:13:35.624Z,1.40
2023-01-29T08:16:07.370Z,1.43
2023-01-29T08:18:42.574Z,1.52
2023-01-29T08:21:13.085Z,1.53
2023-01-29T08:23:42.483Z,1.52
2023-01-29T08:26:11.045Z,1.49
2023-01-29T08:28:39.868Z,1.51
2023-01-29T08:31:15.707Z,1.61
2023-01-29T08:33:45.670Z,1.52
2023-01-29T08:36:15.124Z,1.58
2023-01-29T08:38:43.740Z,1.58
2023-01-29T08:41:12.408Z,1.58
2023-01-29T08:43:41.060Z,1.60
2023-01-29T08:46:10.551Z,1.62
2023-01-29T08:48:39.456Z,1.67
2023-01-29T08:51:10.443Z,1.67
2023-01-29T08:53:39.110Z,1.76
2023-01-29T08:56:08.514Z,1.74
2023-01-29T08:58:37.197Z,1.79
2023-01-29T09:01:10.727Z,1.67
2023-01-29T09:03:43.386Z,1.58
2023-01-29T09:06:16.025Z,1.71
2023-01-29T09:08:44.773Z,1.78
2023-01-29T09:11:13.409Z,1.70
2023-01-29T09:13:42.078Z,1.87
2023-01-29T09:16:11.439Z,1.90
2023-01-29T09:18:40.312Z,1.87
2023-01-29T09:21:09.278Z,1.90
2023-01-29T09:23:39.314Z,1.91
2023-01-29T09:26:09.220Z,1.93
2023-01-29T09:28:38.666Z,1.92
2023-01-29T09:31:10.164Z,2.04
2023-01-29T09:33:38.752Z,1.99
2023-01-29T09:36:08.967Z,2.07
2023-01-29T09:38:39.000Z,2.09
2023-01-29T09:41:25.625Z,2.14
2023-01-29T09:44:01.604Z,2.15
2023-01-29T09:46:40.060Z,2.11
2023-01-29T09:49:19.123Z,2.06
2023-01-29T09:52:07.639Z,2.07
2023-01-29T09:54:57.136Z,1.98
2023-01-29T09:57:58.835Z,1.93
2023-01-29T10:00:36.668Z,2.04
2023-01-29T10:03:37.780Z,2.02
2023-01-29T10:06:43.308Z,1.96
2023-01-29T10:09:49.044Z,2.02
2023-01-29T10:12:36.639Z,1.94
2023-01-29T10:15:22.449Z,2.03
2023-01-29T10:18:11.346Z,1.90
2023-01-29T10:21:01.109Z,1.99
2023-01-29T10:23:35.025Z,2.07
2023-01-29T10:26:05.397Z,1.95
2023-01-29T10:28:42.790Z,2.01
2023-01-29T10:31:21.063Z,2.05
2023-01-29T10:34:02.005Z,2.15
2023-01-29T10:36:39.763Z,2.16
2023-01-29T10:39:18.943Z,2.28
2023-01-29T10:42:16.605Z,2.13
2023-01-29T10:45:07.111Z,2.25
2023-01-29T10:48:08.731Z,2.19
2023-01-29T10:50:50.169Z,2.34
2023-01-29T10:53:35.847Z,2.41
2023-01-29T10:56:23.601Z,2.31
2023-01-29T10:59:02.525Z,2.18
2023-01-29T11:01:31.197Z,2.25
2023-01-29T11:04:06.440Z,2.22
2023-01-29T11:06:37.443Z,2.24
2023-01-29T11:09:14.054Z,2.19
2023-01-29T11:11:49.053Z,1.97
2023-01-29T11:14:26.471Z,2.16
2023-01-29T11:17:00.605Z,2.06
2023-01-29T11:20:02.340Z,2.23
2023-01-29T11:22:37.011Z,2.25
2023-01-29T11:25:54.787Z,2.33
2023-01-29T11:28:45.630Z,2.35
2023-01-29T11:31:24.805Z,2.47
2023-01-29T11:34:07.214Z,2.43
2023-01-29T11:36:39.375Z,2.41
2023-01-29T11:39:27.603Z,2.48
2023-01-29T11:42:04.000Z,2.56
2023-01-29T11:44:44.703Z,2.42
2023-01-29T11:47:24.184Z,2.50
2023-01-29T11:49:58.479Z,2.48
2023-01-29T11:52:40.928Z,2.48
2023-01-29T11:55:20.082Z,2.67
2023-01-29T11:57:55.461Z,2.64
2023-01-29T12:00:29.835Z,2.57
2023-01-29T12:03:08.796Z,2.48
2023-01-29T12:05:37.798Z,2.56
2023-01-29T12:08:24.179Z,2.49
2023-01-29T12:11:14.052Z,2.54
2023-01-29T12:13:47.219Z,2.46
2023-01-29T12:16:25.305Z,2.48
2023-01-29T12:19:07.728Z,2.44
2023-01-29T12:21:49.075Z,2.46
2023-01-29T12:24:37.860Z,2.39
2023-01-29T12:27:15.971Z,2.43
2023-01-29T12:29:53.295Z,2.39
2023-01-29T12:32:37.043Z,2.37
2023-01-29T12:35:18.904Z,2.44
2023-01-29T12:37:57.648Z,2.55
2023-01-29T12:40:32.799Z,2.44
2023-01-29T12:43:08.462Z,2.56
2023-01-29T12:45:42.865Z,2.53
2023-01-29T12:48:17.620Z,2.44
2023-01-29T12:50:50.473Z,2.32
2023-01-29T12:53:28.883Z,2.48
2023-01-29T12:56:04.420Z,2.47
2023-01-29T12:58:41.160Z,2.39
2023-01-29T13:01:18.308Z,2.30
2023-01-29T13:03:56.080Z,2.39
2023-01-29T13:06:35.478Z,2.29
2023-01-29T13:09:09.633Z,2.33
2023-01-29T13:11:46.913Z,2.33
2023-01-29T13:14:23.841Z,2.34
2023-01-29T13:17:03.243Z,2.37
2023-01-29T13:19:40.133Z,2.27
2023-01-29T13:22:23.729Z,2.32
2023-01-29T13:25:04.169Z,2.40
2023-01-29T13:27:38.080Z,2.33
2023-01-29T13:30:11.423Z,2.35
2023-01-29T13:32:40.132Z,2.35
2023-01-29T13:35:17.410Z,2.25
2023-01-29T13:37:53.900Z,2.28
2023-01-29T13:40:29.015Z,2.34
2023-01-29T13:43:00.395Z,2.28
2023-01-29T13:45:37.524Z,2.21
2023-01-29T13:48:24.958Z,2.25
2023-01-29T13:50:57.765Z,2.21
2023-01-29T13:53:34.696Z,2.13
2023-01-29T13:56:42.952Z,2.14
2023-01-29T13:59:25.448Z,2.15
2023-01-29T14:02:19.871Z,2.04
2023-01-29T14:04:48.883Z,1.99
2023-01-29T14:07:52.156Z,2.07
2023-01-29T14:10:24.825Z,2.10
2023-01-29T14:12:55.704Z,2.13
2023-01-29T14:15:35.849Z,2.08
2023-01-29T14:18:27.399Z,2.17
2023-01-29T14:21:06.023Z,2.18
2023-01-29T14:23:46.223Z,1.99
2023-01-29T14:26:29.923Z,2.05
2023-01-29T14:29:06.136Z,2.01
2023-01-29T14:31:50.565Z,2.06
2023-01-29T14:34:29.188Z,2.09
2023-01-29T14:37:02.464Z,1.99
2023-01-29T14:39:38.809Z,1.97
2023-01-29T14:42:25.050Z,1.97
2023-01-29T14:45:11.614Z,2.10
2023-01-29T14:48:05.509Z,2.04
2023-01-29T14:50:49.402Z,2.02
2023-01-29T14:53:41.867Z,2.06
2023-01-29T14:56:18.293Z,1.90
2023-01-29T14:58:52.329Z,1.90
2023-01-29T15:01:25.056Z,1.86
2023-01-29T15:03:59.814Z,1.83
2023-01-29T15:06:37.000Z,1.81
2023-01-29T15:09:16.624Z,1.85
2023-01-29T15:11:57.592Z,1.76
2023-01-29T15:14:34.831Z,1.78
2023-01-29T15:17:24.981Z,1.80
2023-01-29T15:19:53.662Z,1.73
2023-01-29T15:22:26.097Z,1.77
2023-01-29T15:25:08.417Z,1.75
2023-01-29T15:27:37.247Z,1.64
2023-01-29T15:30:09.601Z,1.74
2023-01-29T15:32:41.050Z,1.76
2023-01-29T15:35:16.931Z,1.72
2023-01-29T15:38:00.203Z,1.78
2023-01-29T15:40:29.025Z,1.79
2023-01-29T15:42:57.716Z,1.81
2023-01-29T15:45:32.208Z,1.82
2023-01-29T15:48:09.671Z,1.82
2023-01-29T15:50:43.463Z,1.83
2023-01-29T15:53:19.305Z,1.95
2023-01-29T15:55:51.677Z,1.86
2023-01-29T15:58:31.713Z,1.86
2023-01-29T16:01:03.307Z,1.95
2023-01-29T16:03:35.619Z,1.88
2023-01-29T16:06:07.069Z,1.95
2023-01-29T16:08:37.188Z,1.97
2023-01-29T16:11:08.885Z,1.93
2023-01-29T16:13:44.265Z,1.94
2023-01-29T16:16:24.954Z,1.97
2023-01-29T16:19:00.340Z,1.98
2023-01-29T16:21:36.808Z,1.96
2023-01-29T16:24:11.935Z,2.04
2023-01-29T16:26:45.982Z,1.97
2023-01-29T16:29:18.203Z,1.99
2023-01-29T16:31:51.617Z,1.98
2023-01-29T16:34:31.742Z,2.13
2023-01-29T16:37:03.981Z,2.06
2023-01-29T16:39:39.579Z,2.08
2023-01-29T16:42:30.502Z,2.09
2023-01-29T16:45:02.816Z,2.04
2023-01-29T16:47:46.041Z,2.09
2023-01-29T16:50:35.923Z,2.08
2023-01-29T16:53:14.270Z,2.16
2023-01-29T16:55:49.424Z,2.05
2023-01-29T16:58:22.850Z,2.15
2023-01-29T17:00:57.504Z,2.11
2023-01-29T17:03:31.671Z,2.16
2023-01-29T17:06:12.933Z,2.12
2023-01-29T17:08:45.508Z,2.06
2023-01-29T17:11:31.753Z,2.18
2023-01-29T17:14:01.640Z,2.20
2023-01-29T17:16:33.345Z,2.11
2023-01-29T17:19:12.530Z,2.23
2023-01-29T17:21:41.203Z,2.21
2023-01-29T17:24:10.871Z,2.19
2023-01-29T17:26:40.445Z,2.25
2023-01-29T17:29:20.156Z,2.27
2023-01-29T17:31:52.224Z,2.26
2023-01-29T17:34:25.537Z,2.29
2023-01-29T17:36:54.378Z,2.18
2023-01-29T17:39:25.698Z,2.30
2023-01-29T17:41:56.728Z,2.25
2023-01-29T17:44:27.190Z,2.25
2023-01-29T17:46:57.836Z,2.25
2023-01-29T17:49:32.320Z,2.28
2023-01-29T17:52:01.373Z,2.13
2023-01-29T17:54:30.007Z,2.16
2023-01-29T17:57:01.443Z,2.29
2023-01-29T17:59:33.516Z,2.18
2023-01-29T18:02:02.675Z,2.21
2023-01-29T18:04:33.023Z,2.28
2023-01-29T18:07:01.664Z,2.25
2023-01-29T18:09:30.294Z,2.13
2023-01-29T18:11:58.945Z,2.15
2023-01-29T18:14:27.607Z,2.32
2023-01-29T18:16:57.359Z,2.07
2023-01-29T18:19:28.307Z,2.16
2023-01-29T18:21:58.553Z,2.12
2023-01-29T18:24:27.356Z,2.03
2023-01-29T18:26:56.102Z,2.04
2023-01-29T18:29:29.598Z,2.11
2023-01-29T18:31:58.631Z,2.00
2023-01-29T18:34:27.458Z,2.06
2023-01-29T18:36:57.517Z,2.12
2023-01-29T18:39:26.196Z,2.06
2023-01-29T18:41:54.760Z,2.07
2023-01-29T18:44:23.448Z,2.00
2023-01-29T18:46:52.205Z,1.93
2023-01-29T18:49:20.972Z,1.95
2023-01-29T18:51:49.702Z,1.87
2023-01-29T18:54:21.584Z,1.84
2023-01-29T18:57:13.843Z,1.84
2023-01-29T18:59:39.854Z,1.91
2023-01-29T19:02:08.833Z,1.90
2023-01-29T19:04:37.403Z,1.92
2023-01-29T19:07:06.022Z,1.89
2023-01-29T19:09:36.186Z,1.88
2023-01-29T19:12:05.694Z,1.90
2023-01-29T19:14:34.782Z,1.91
2023-01-29T19:17:04.663Z,1.85
2023-01-29T19:19:33.424Z,1.86
2023-01-29T19:22:02.315Z,1.95
2023-01-29T19:24:36.267Z,1.96
2023-01-29T19:27:07.141Z,2.02
2023-01-29T19:29:35.880Z,1.99
2023-01-29T19:32:04.676Z,1.97
2023-01-29T19:34:33.303Z,1.99
2023-01-29T19:37:01.898Z,1.90
2023-01-29T19:39:33.810Z,1.95
2023-01-29T19:42:02.555Z,1.99
2023-01-29T19:44:32.636Z,1.96
2023-01-29T19:47:01.884Z,1.97
2023-01-29T19:49:31.241Z,2.04
2023-01-29T19:52:01.086Z,2.01
2023-01-29T19:54:30.323Z,2.07
2023-01-29T19:56:59.022Z,2.11
2023-01-29T19:59:27.672Z,1.97
2023-01-29T20:01:57.651Z,2.04
2023-01-29T20:04:26.813Z,2.06
2023-01-29T20:06:55.418Z,1.98
2023-01-29T20:09:24.033Z,1.96
2023-01-29T20:11:52.619Z,1.98
2023-01-29T20:14:21.398Z,1.92
2023-01-29T20:16:50.110Z,2.09
2023-01-29T20:19:21.163Z,1.95
2023-01-29T20:21:50.039Z,2.01
2023-01-29T20:24:19.088Z,1.99
2023-01-29T20:26:50.857Z,1.87
2023-01-29T20:29:19.991Z,1.90
2023-01-29T20:31:49.097Z,1.95
2023-01-29T20:34:19.390Z,2.01
2023-01-29T20:36:48.076Z,2.01
2023-01-29T20:39:16.775Z,2.07
2023-01-29T20:41:45.515Z,1.89
2023-01-29T20:44:14.500Z,2.06
2023-01-29T20:46:43.116Z,2.10
2023-01-29T20:49:12.414Z,2.08
2023-01-29T20:51:42.423Z,2.03
2023-01-29T20:54:12.612Z,2.08
2023-01-29T20:56:43.092Z,2.08
2023-01-29T20:59:13.914Z,2.11
2023-01-29T21:01:43.693Z,2.21
2023-01-29T21:04:12.351Z,2.09
2023-01-29T21:06:42.341Z,2.04
2023-01-29T21:09:10.994Z,2.03
2023-01-29T21:11:39.614Z,2.02
2023-01-29T21:14:08.368Z,2.08
2023-01-29T21:16:37.106Z,2.12
2023-01-29T21:19:05.734Z,2.15
2023-01-29T21:21:34.774Z,2.04
2023-01-29T21:24:05.397Z,2.02
2023-01-29T21:26:34.726Z,2.02
2023-01-29T21:29:06.431Z,2.10
2023-01-29T21:31:35.411Z,2.00
2023-01-29T21:34:06.048Z,2.01
2023-01-29T21:36:36.006Z,2.04
2023-01-29T21:39:17.597Z,2.06
2023-01-29T21:42:05.154Z,2.00
2023-01-29T21:44:34.220Z,2.07
2023-01-29T21:47:12.289Z,2.11
2023-01-29T21:49:42.780Z,1.94
2023-01-29T21:52:14.059Z,2.05
2023-01-29T21:54:46.967Z,1.98
2023-01-29T21:57:17.188Z,1.97
2023-01-29T21:59:47.171Z,2.03
2023-01-29T22:02:23.921Z,1.98
2023-01-29T22:05:08.686Z,1.98
2023-01-29T22:07:45.947Z,2.04
2023-01-29T22:10:17.189Z,1.99
2023-01-29T22:12:46.202Z,1.97
2023-01-29T22:15:15.746Z,1.82
2023-01-29T22:17:44.849Z,2.07
2023-01-29T22:20:16.266Z,1.99
2023-01-29T22:22:45.237Z,1.86
2023-01-29T22:25:20.054Z,2.01
2023-01-29T22:27:48.745Z,1.87
2023-01-29T22:30:18.395Z,1.92
2023-01-29T22:32:47.182Z,1.90
2023-01-29T22:35:15.939Z,1.93
2023-01-29T22:37:44.883Z,1.89
2023-01-29T22:40:16.184Z,1.84
2023-01-29T22:42:44.960Z,1.89
2023-01-29T22:45:14.009Z,1.93
2023-01-29T22:47:42.668Z,1.78
2023-01-29T22:50:38.268Z,1.74
2023-01-29T22:53:07.365Z,1.70
2023-01-29T22:55:37.352Z,1.85
2023-01-29T22:58:05.981Z,1.83
2023-01-29T23:00:34.552Z,1.81
2023-01-29T23:03:03.543Z,1.78
2023-01-29T23:05:32.271Z,1.78
2023-01-29T23:08:00.846Z,1.85
2023-01-29T23:10:29.550Z,1.81
2023-01-29T23:12:59.495Z,1.83
2023-01-29T23:15:28.165Z,1.84
2023-01-29T23:17:56.925Z,1.68
2023-01-29T23:20:25.635Z,1.87
2023-01-29T23:22:54.390Z,1.76
2023-01-29T23:25:43.425Z,1.77
2023-01-29T23:28:12.449Z,1.91
2023-01-29T23:30:41.226Z,2.01
2023-01-29T23:33:12.127Z,1.93
2023-01-29T23:35:41.423Z,1.93
2023-01-29T23:38:10.077Z,1.75
2023-01-29T23:40:40.084Z,1.85
2023-01-29T23:43:08.695Z,1.77
2023-01-29T23:45:38.653Z,1.98
2023-01-29T23:48:07.893Z,1.90
2023-01-29T23:50:36.504Z,1.89
2023-01-29T23:53:05.244Z,1.83
2023-01-29T23:55:33.916Z,1.76
2023-01-29T23:58:02.522Z,1.93
